Time;durP1;ratioP1;P1;durP2;ratioP2;P2;SDS_P1;SDS_P2;PMS_P1;PMS_P2;Temp;Humidity;BMP_temperature;BMP_pressure;BME280_temperature;BME280_humidity;BME280_pressure;Samples;Min_cycle;Max_cycle;Signal;HPM_P1;HPM_P2
2023/06/22 00:01:24;;;;;;;8.13;4.43;;;19.10;99.90;;;;;;5034002;28;20256;-76
2023/06/22 00:03:53;;;;;;;7.93;4.63;;;19.10;99.90;;;;;;5034931;28;20663;-77
2023/06/22 00:06:22;;;;;;;7.63;4.30;;;19.10;99.90;;;;;;5054163;28;20735;-75
2023/06/22 00:08:50;;;;;;;7.97;4.70;;;19.00;99.90;;;;;;5054246;28;20216;-74
2023/06/22 00:11:20;;;;;;;9.33;4.63;;;19.00;99.90;;;;;;5051908;28;20248;-75
2023/06/22 00:13:49;;;;;;;8.90;4.80;;;19.00;99.90;;;;;;5034242;28;20675;-76
2023/06/22 00:16:17;;;;;;;8.97;4.73;;;19.00;99.90;;;;;;5034232;28;20205;-75
2023/06/22 00:18:46;;;;;;;10.10;5.00;;;19.00;99.90;;;;;;5034110;28;20607;-75
2023/06/22 00:21:16;;;;;;;9.10;5.20;;;19.00;99.90;;;;;;5034113;28;20682;-74
2023/06/22 00:23:44;;;;;;;9.57;4.60;;;19.00;99.90;;;;;;5033695;28;20684;-74
2023/06/22 00:26:12;;;;;;;10.87;4.60;;;19.00;99.90;;;;;;5034067;28;20209;-74
2023/06/22 00:28:41;;;;;;;9.13;4.77;;;19.10;99.90;;;;;;5033695;28;20208;-74
2023/06/22 00:31:09;;;;;;;8.87;4.50;;;19.10;99.90;;;;;;5033780;28;20204;-73
2023/06/22 00:33:37;;;;;;;7.33;4.70;;;19.10;99.90;;;;;;5033462;28;20220;-76
2023/06/22 00:36:07;;;;;;;8.33;4.67;;;19.10;99.90;;;;;;5033932;28;20286;-75
2023/06/22 00:38:39;;;;;;;9.43;4.73;;;19.10;99.90;;;;;;5033596;28;20205;-74
2023/06/22 00:41:08;;;;;;;8.73;4.57;;;19.10;99.90;;;;;;5040465;28;20220;-74
2023/06/22 00:43:36;;;;;;;8.10;4.60;;;19.10;99.90;;;;;;5053230;28;20208;-74
2023/06/22 00:46:04;;;;;;;8.10;4.10;;;19.10;99.90;;;;;;5053357;28;20216;-75
2023/06/22 00:48:32;;;;;;;7.03;4.60;;;19.10;99.90;;;;;;5047531;28;20225;-74
2023/06/22 00:51:00;;;;;;;12.90;4.43;;;19.10;99.90;;;;;;5033472;28;20258;-73
2023/06/22 00:53:29;;;;;;;7.77;4.50;;;19.10;99.90;;;;;;5032868;28;20213;-75
2023/06/22 00:55:59;;;;;;;9.40;4.73;;;19.10;99.90;;;;;;5033432;28;20244;-76
2023/06/22 00:58:27;;;;;;;10.07;4.60;;;19.10;99.90;;;;;;5033278;28;20351;-74
2023/06/22 01:00:55;;;;;;;8.73;4.87;;;19.10;99.90;;;;;;5033470;28;20268;-76
2023/06/22 01:03:24;;;;;;;10.63;4.60;;;19.00;99.90;;;;;;5041514;28;20223;-77
2023/06/22 01:05:54;;;;;;;6.10;4.40;;;19.00;99.90;;;;;;5053209;28;20208;-74
2023/06/22 01:08:32;;;;;;;6.43;4.30;;;19.00;99.90;;;;;;5038344;28;20211;-76
2023/06/22 01:11:06;;;;;;;7.27;4.57;;;19.00;99.90;;;;;;5033092;28;20261;-74
2023/06/22 01:13:42;;;;;;;11.87;5.10;;;18.90;99.90;;;;;;5032496;28;20266;-74
2023/06/22 01:16:17;;;;;;;9.07;4.87;;;18.90;99.90;;;;;;5032880;28;20613;-75
2023/06/22 01:18:45;;;;;;;9.93;4.67;;;18.90;99.90;;;;;;5033045;28;20208;-74
2023/06/22 01:21:18;;;;;;;8.43;4.60;;;18.90;99.90;;;;;;5032954;28;20270;-74
2023/06/22 01:24:08;;;;;;;9.47;4.90;;;18.90;99.90;;;;;;5044898;28;20692;-74
2023/06/22 01:26:43;;;;;;;6.70;4.30;;;18.90;99.90;;;;;;5052362;28;20189;-74
2023/06/22 01:29:15;;;;;;;8.43;4.60;;;18.80;99.90;;;;;;5052585;28;20211;-75
2023/06/22 01:31:46;;;;;;;10.23;4.77;;;18.80;99.90;;;;;;5047381;28;20212;-75
2023/06/22 01:34:15;;;;;;;10.37;4.83;;;18.80;99.90;;;;;;5032548;28;20295;-74
2023/06/22 01:36:44;;;;;;;7.30;5.13;;;18.70;99.90;;;;;;5032212;28;20236;-74
2023/06/22 01:39:13;;;;;;;9.30;5.10;;;18.80;99.90;;;;;;5033141;28;20209;-74
2023/06/22 01:41:43;;;;;;;8.37;4.90;;;18.70;99.90;;;;;;5052424;28;20224;-75
2023/06/22 01:44:13;;;;;;;9.93;5.13;;;18.60;99.90;;;;;;5052508;28;20231;-75
2023/06/22 01:46:42;;;;;;;8.63;5.23;;;18.60;99.90;;;;;;5052351;28;20232;-75
2023/06/22 01:49:10;;;;;;;7.17;4.90;;;18.60;99.90;;;;;;5050846;28;20212;-73
2023/06/22 01:51:38;;;;;;;9.10;5.33;;;18.60;99.90;;;;;;5052311;28;20205;-74
2023/06/22 01:54:08;;;;;;;10.17;5.10;;;18.60;99.90;;;;;;5052793;28;20254;-75
2023/06/22 01:56:37;;;;;;;9.70;5.00;;;18.70;99.90;;;;;;5052613;28;20215;-75
2023/06/22 01:59:12;;;;;;;10.53;5.00;;;18.70;99.90;;;;;;5034260;28;20240;-75
2023/06/22 02:01:46;;;;;;;7.70;4.90;;;18.70;99.90;;;;;;5037762;28;20219;-74
2023/06/22 02:04:20;;;;;;;10.87;5.23;;;18.70;99.90;;;;;;5051922;28;20658;-75
2023/06/22 02:06:53;;;;;;;11.97;5.63;;;18.70;99.90;;;;;;5049085;28;20244;-75
2023/06/22 02:09:23;;;;;;;9.60;5.00;;;18.70;99.90;;;;;;5031841;28;20270;-78
2023/06/22 02:11:55;;;;;;;10.50;5.60;;;18.70;99.90;;;;;;5031922;28;20586;-76
2023/06/22 02:14:24;;;;;;;10.47;5.00;;;18.70;99.90;;;;;;5032448;28;20565;-80
2023/06/22 02:16:54;;;;;;;10.97;5.27;;;18.70;99.90;;;;;;5044862;28;20216;-77
2023/06/22 02:19:24;;;;;;;9.70;5.50;;;18.70;99.90;;;;;;5052812;28;20302;-78
2023/06/22 02:21:52;;;;;;;9.13;5.13;;;18.70;99.90;;;;;;5051663;28;20227;-75
2023/06/22 02:24:23;;;;;;;9.10;5.43;;;18.60;99.90;;;;;;5052275;28;20295;-74
2023/06/22 02:26:51;;;;;;;9.90;5.30;;;18.60;99.90;;;;;;5037395;28;20500;-75
2023/06/22 02:29:19;;;;;;;13.07;5.80;;;18.60;99.90;;;;;;5032163;28;20667;-75
2023/06/22 02:31:47;;;;;;;10.60;5.97;;;18.60;99.90;;;;;;5031744;28;20299;-75
2023/06/22 02:34:18;;;;;;;7.63;5.20;;;18.50;99.90;;;;;;5031828;28;20683;-76
2023/06/22 02:36:50;;;;;;;9.73;5.80;;;18.40;99.90;;;;;;5031522;28;20205;-75
2023/06/22 02:39:22;;;;;;;10.07;5.53;;;18.40;99.90;;;;;;5031415;28;20674;-74
2023/06/22 02:41:50;;;;;;;12.10;5.60;;;18.40;99.90;;;;;;5031480;28;20216;-76
2023/06/22 02:44:18;;;;;;;9.20;5.13;;;18.30;99.90;;;;;;5032401;28;20555;-74
2023/06/22 02:46:48;;;;;;;8.97;5.40;;;18.30;99.90;;;;;;5031705;28;20229;-76
2023/06/22 02:49:17;;;;;;;8.33;5.50;;;18.30;99.90;;;;;;5031792;28;20233;-76
2023/06/22 02:51:48;;;;;;;10.67;4.90;;;18.20;99.90;;;;;;5031710;28;20300;-74
2023/06/22 02:54:16;;;;;;;10.43;5.60;;;18.10;99.90;;;;;;5031601;28;20208;-75
2023/06/22 02:56:44;;;;;;;10.37;5.27;;;18.10;99.90;;;;;;5031684;28;20259;-75
2023/06/22 02:59:12;;;;;;;9.60;5.33;;;18.00;99.90;;;;;;5031805;28;20575;-75
2023/06/22 03:01:41;;;;;;;10.50;5.10;;;18.00;99.90;;;;;;5040401;28;20240;-75
2023/06/22 03:04:09;;;;;;;9.33;4.97;;;17.90;99.90;;;;;;5031639;28;20624;-75
2023/06/22 03:06:40;;;;;;;10.10;5.90;;;17.90;99.90;;;;;;5031366;28;20731;-74
2023/06/22 03:09:09;;;;;;;9.63;5.70;;;17.80;99.90;;;;;;5031212;28;20248;-75
2023/06/22 03:11:37;;;;;;;10.10;5.70;;;17.80;99.90;;;;;;5031174;28;20263;-74
2023/06/22 03:14:05;;;;;;;9.43;5.50;;;17.70;99.90;;;;;;5034990;28;20295;-74
2023/06/22 03:16:33;;;;;;;10.00;5.57;;;17.70;99.90;;;;;;5035911;28;20208;-76
2023/06/22 03:19:02;;;;;;;10.33;5.43;;;17.60;99.90;;;;;;5035074;28;20632;-75
2023/06/22 03:21:31;;;;;;;11.93;6.47;;;17.60;99.90;;;;;;5035181;28;20205;-75
2023/06/22 03:24:01;;;;;;;8.67;6.20;;;17.60;99.90;;;;;;5034590;28;20760;-75
2023/06/22 03:26:29;;;;;;;12.13;6.60;;;17.60;99.90;;;;;;5035027;28;20213;-74
2023/06/22 03:28:57;;;;;;;13.70;6.70;;;17.60;99.90;;;;;;5034745;28;20639;-75
2023/06/22 03:31:26;;;;;;;9.50;6.30;;;17.60;99.90;;;;;;5034807;28;20217;-75
2023/06/22 03:33:54;;;;;;;12.60;6.40;;;17.50;99.90;;;;;;5037448;28;20299;-74
2023/06/22 03:36:22;;;;;;;12.73;6.80;;;17.60;99.90;;;;;;5045070;28;20906;-75
2023/06/22 03:38:51;;;;;;;14.17;6.90;;;17.60;99.90;;;;;;5040870;28;20250;-75
2023/06/22 03:41:20;;;;;;;10.07;6.20;;;17.60;99.90;;;;;;5050836;28;20205;-74
2023/06/22 03:43:48;;;;;;;13.37;6.27;;;17.60;99.90;;;;;;5052989;28;20278;-75
2023/06/22 03:46:16;;;;;;;9.73;6.80;;;17.60;99.90;;;;;;5034486;28;20220;-76
2023/06/22 03:48:45;;;;;;;11.53;6.53;;;17.70;99.90;;;;;;5034371;28;20220;-75
2023/06/22 03:51:13;;;;;;;8.90;6.30;;;17.70;99.90;;;;;;5034141;28;20209;-74
2023/06/22 03:53:41;;;;;;;9.90;6.80;;;17.70;99.90;;;;;;5034019;28;20263;-74
2023/06/22 03:56:09;;;;;;;11.33;6.47;;;17.80;99.90;;;;;;5034371;28;20228;-75
2023/06/22 03:58:42;;;;;;;10.23;6.67;;;17.80;99.90;;;;;;5038209;28;20589;-74
2023/06/22 04:01:11;;;;;;;11.27;6.27;;;17.80;99.90;;;;;;5054385;28;20227;-76
2023/06/22 04:03:40;;;;;;;10.30;6.27;;;17.80;99.90;;;;;;5037668;28;20231;-77
2023/06/22 04:06:08;;;;;;;10.53;6.30;;;17.80;99.90;;;;;;5034374;28;20217;-75
2023/06/22 04:08:36;;;;;;;9.67;6.07;;;17.90;99.90;;;;;;5033664;28;20208;-75
2023/06/22 04:11:04;;;;;;;9.50;6.10;;;17.90;99.90;;;;;;5034072;28;20635;-75
2023/06/22 04:13:33;;;;;;;11.53;6.50;;;17.90;99.90;;;;;;5034309;28;20209;-74
2023/06/22 04:16:02;;;;;;;13.30;6.60;;;17.90;99.90;;;;;;5035061;28;20236;-75
2023/06/22 04:18:30;;;;;;;12.67;6.80;;;18.00;99.90;;;;;;5033960;28;20265;-74
2023/06/22 04:20:58;;;;;;;14.23;6.20;;;18.00;99.90;;;;;;5034125;28;20212;-73
2023/06/22 04:23:26;;;;;;;10.60;6.00;;;18.10;99.90;;;;;;5033173;28;20287;-74
2023/06/22 04:25:57;;;;;;;12.70;6.80;;;18.10;99.90;;;;;;5033739;28;20236;-74
2023/06/22 04:28:25;;;;;;;8.83;5.67;;;18.20;99.90;;;;;;5033435;28;20216;-75
2023/06/22 04:30:58;;;;;;;13.37;6.23;;;18.20;99.90;;;;;;5034036;28;20198;-75
2023/06/22 04:33:29;;;;;;;12.73;7.03;;;18.30;99.90;;;;;;5033148;28;20209;-76
2023/06/22 04:35:57;;;;;;;10.27;6.00;;;18.30;99.90;;;;;;5034029;28;20201;-74
2023/06/22 04:38:26;;;;;;;9.30;5.57;;;18.30;99.90;;;;;;5033638;28;20246;-74
2023/06/22 04:40:54;;;;;;;11.53;5.53;;;18.40;99.90;;;;;;5033692;28;20263;-75
2023/06/22 04:43:22;;;;;;;13.20;5.57;;;18.50;99.90;;;;;;5033315;28;20655;-75
2023/06/22 04:45:52;;;;;;;9.40;5.40;;;18.60;99.90;;;;;;5033696;28;20209;-76
2023/06/22 04:48:20;;;;;;;9.47;5.80;;;18.70;99.90;;;;;;5033564;28;20229;-74
2023/06/22 04:50:50;;;;;;;10.87;5.73;;;18.80;99.90;;;;;;5033310;28;20622;-75
2023/06/22 04:53:18;;;;;;;8.50;5.43;;;18.90;99.90;;;;;;5033080;28;20239;-76
2023/06/22 04:55:49;;;;;;;13.13;5.63;;;18.90;99.90;;;;;;5033392;28;20212;-74
2023/06/22 04:58:19;;;;;;;10.57;5.90;;;19.00;99.90;;;;;;5046257;28;20266;-77
2023/06/22 05:00:48;;;;;;;8.77;5.40;;;19.00;99.90;;;;;;5037062;28;20228;-75
2023/06/22 05:03:18;;;;;;;10.93;5.63;;;19.10;99.90;;;;;;5032913;28;20652;-75
2023/06/22 05:05:48;;;;;;;10.23;5.67;;;19.20;99.90;;;;;;5033554;28;20205;-75
2023/06/22 05:08:17;;;;;;;11.70;5.80;;;19.30;99.90;;;;;;5033121;28;20225;-75
2023/06/22 05:10:45;;;;;;;12.27;5.40;;;19.30;99.90;;;;;;5033598;28;20216;-75
2023/06/22 05:13:31;;;;;;;9.27;5.30;;;19.40;99.90;;;;;;5032922;28;20197;-73
2023/06/22 05:16:01;;;;;;;9.33;5.20;;;19.40;99.90;;;;;;5033130;28;20247;-76
2023/06/22 05:18:31;;;;;;;10.03;5.40;;;19.50;99.90;;;;;;5033939;28;20236;-74
2023/06/22 05:21:00;;;;;;;12.30;5.47;;;19.60;99.90;;;;;;5036349;28;20592;-76
2023/06/22 05:23:30;;;;;;;9.93;5.63;;;19.70;99.90;;;;;;5054875;28;20228;-75
2023/06/22 05:25:58;;;;;;;9.60;5.20;;;19.70;99.90;;;;;;5045669;28;20213;-77
2023/06/22 05:28:26;;;;;;;11.73;5.53;;;19.90;99.90;;;;;;5055130;28;20224;-74
2023/06/22 05:30:55;;;;;;;10.70;5.13;;;20.00;99.90;;;;;;5042865;28;20609;-80
2023/06/22 05:33:23;;;;;;;11.90;5.30;;;20.10;99.90;;;;;;5032866;28;20574;-76
2023/06/22 05:35:51;;;;;;;10.90;5.13;;;20.20;99.90;;;;;;5032367;28;20300;-76
2023/06/22 05:38:19;;;;;;;10.33;4.90;;;20.40;99.90;;;;;;5032998;28;20295;-76
2023/06/22 05:40:49;;;;;;;10.10;4.43;;;20.50;99.90;;;;;;5032999;28;20213;-75
2023/06/22 05:43:17;;;;;;;7.77;4.63;;;20.60;99.90;;;;;;5032615;28;20246;-76
2023/06/22 05:45:45;;;;;;;8.23;4.80;;;20.80;99.90;;;;;;5032712;28;20254;-74
2023/06/22 05:48:13;;;;;;;10.50;5.30;;;21.00;99.90;;;;;;5033801;28;20268;-78
2023/06/22 05:50:41;;;;;;;8.77;4.97;;;21.30;99.90;;;;;;5033088;28;20209;-76
2023/06/22 05:53:09;;;;;;;6.80;4.47;;;21.50;99.90;;;;;;5033085;28;20236;-75
2023/06/22 05:55:37;;;;;;;8.70;4.23;;;21.80;99.90;;;;;;5035426;28;20209;-76
2023/06/22 05:58:07;;;;;;;14.00;4.57;;;22.80;99.90;;;;;;5052563;28;20212;-78
2023/06/22 06:00:35;;;;;;;11.73;4.47;;;23.80;99.90;;;;;;5041263;28;20205;-80
2023/06/22 06:03:04;;;;;;;10.67;4.50;;;24.70;99.90;;;;;;5032302;28;20255;-77
2023/06/22 06:05:33;;;;;;;9.07;3.97;;;25.50;99.90;;;;;;5032634;28;20710;-81
2023/06/22 06:08:01;;;;;;;7.67;3.83;;;26.40;99.90;;;;;;5034683;28;20736;-79
2023/06/22 06:10:30;;;;;;;11.13;4.27;;;26.80;99.90;;;;;;5046350;28;20223;-79
2023/06/22 06:13:01;;;;;;;8.27;3.97;;;27.20;99.60;;;;;;5051954;28;20610;-77
2023/06/22 06:15:31;;;;;;;10.60;4.00;;;27.70;98.30;;;;;;5051831;28;20200;-81
2023/06/22 06:18:00;;;;;;;7.67;3.93;;;28.20;96.70;;;;;;5037460;28;20605;-84
2023/06/22 06:20:28;;;;;;;8.50;3.70;;;28.50;94.70;;;;;;5032034;28;20208;-79
2023/06/22 06:22:57;;;;;;;9.57;4.00;;;28.80;94.40;;;;;;5032194;28;20212;-76
2023/06/22 06:25:25;;;;;;;7.07;3.50;;;29.30;91.30;;;;;;5032081;28;20236;-83
2023/06/22 06:27:55;;;;;;;6.30;3.75;;;29.60;91.00;;;;;;5032260;28;20213;-79
2023/06/22 06:30:23;;;;;;;10.35;4.10;;;29.80;87.30;;;;;;5032874;28;20212;-77
2023/06/22 06:32:53;;;;;;;8.45;4.10;;;29.00;88.20;;;;;;5031892;28;20209;-78
2023/06/22 06:35:21;;;;;;;7.70;3.53;;;28.70;90.30;;;;;;5031856;28;20209;-80
2023/06/22 06:37:50;;;;;;;7.60;3.72;;;29.10;87.90;;;;;;5031779;28;20303;-78
2023/06/22 06:40:20;;;;;;;9.05;3.75;;;29.30;89.60;;;;;;5031726;28;20212;-79
2023/06/22 06:42:49;;;;;;;12.82;3.95;;;30.00;85.20;;;;;;5032935;28;20212;-79
2023/06/22 06:45:22;;;;;;;11.75;3.92;;;29.70;83.00;;;;;;5043977;28;20239;-80
2023/06/22 06:47:53;;;;;;;9.98;3.55;;;29.70;83.70;;;;;;5048804;28;20223;-79
2023/06/22 06:50:21;;;;;;;9.95;3.60;;;29.40;84.20;;;;;;5046973;28;20244;-77
2023/06/22 06:52:50;;;;;;;8.55;3.80;;;29.40;83.80;;;;;;5055510;28;20266;-79
2023/06/22 06:55:19;;;;;;;10.10;4.18;;;29.60;82.50;;;;;;5055479;28;20204;-79
2023/06/22 06:57:49;;;;;;;6.43;3.80;;;29.90;79.00;;;;;;5036580;28;20278;-79
2023/06/22 07:00:19;;;;;;;10.95;4.07;;;29.50;77.40;;;;;;5037746;28;20204;-79
2023/06/22 07:02:48;;;;;;;11.00;3.70;;;29.70;78.70;;;;;;5056022;28;20462;-82
2023/06/22 07:05:18;;;;;;;7.45;3.70;;;29.50;77.40;;;;;;5055922;28;20227;-78
2023/06/22 07:07:46;;;;;;;13.23;4.32;;;29.30;79.90;;;;;;5042956;28;20263;-78
2023/06/22 07:10:15;;;;;;;11.50;4.32;;;29.40;79.20;;;;;;5053879;28;20289;-79
2023/06/22 07:12:43;;;;;;;16.35;4.20;;;30.20;76.70;;;;;;5051117;28;20208;-77
2023/06/22 07:15:12;;;;;;;12.98;4.25;;;29.80;77.20;;;;;;5053226;28;20655;-78
2023/06/22 07:17:41;;;;;;;9.10;3.90;;;30.20;76.40;;;;;;5048534;28;20236;-80
2023/06/22 07:20:11;;;;;;;11.60;4.57;;;30.70;74.20;;;;;;5054278;28;20204;-80
2023/06/22 07:22:48;;;;;;;10.35;4.50;;;30.80;71.60;;;;;;5044012;28;20205;-80
2023/06/22 07:25:22;;;;;;;11.80;4.20;;;30.60;73.80;;;;;;5035573;28;20229;-82
2023/06/22 07:28:01;;;;;;;9.30;4.10;;;31.10;70.30;;;;;;5035777;28;20721;-82
2023/06/22 07:30:30;;;;;;;11.80;4.53;;;30.50;71.10;;;;;;5034976;28;20223;-78
2023/06/22 07:33:03;;;;;;;7.78;3.67;;;30.20;71.90;;;;;;5035027;28;20312;-79
2023/06/22 07:35:32;;;;;;;10.45;4.43;;;31.00;70.90;;;;;;5037459;28;20229;-80
2023/06/22 07:38:01;;;;;;;11.23;4.45;;;31.40;68.00;;;;;;5054916;28;20203;-80
2023/06/22 07:40:35;;;;;;;10.43;3.88;;;31.40;67.60;;;;;;5035841;28;20224;-82
2023/06/22 07:43:04;;;;;;;8.77;4.40;;;31.30;67.70;;;;;;5035453;28;20703;-81
2023/06/22 07:45:34;;;;;;;12.07;4.90;;;32.00;67.00;;;;;;5035925;28;20275;-80
2023/06/22 07:48:03;;;;;;;17.70;5.03;;;32.40;62.90;;;;;;5038024;28;20667;-79
2023/06/22 07:50:31;;;;;;;10.25;5.00;;;32.40;62.30;;;;;;5054669;28;20212;-85
2023/06/22 07:53:01;;;;;;;9.73;4.88;;;32.80;61.80;;;;;;5056962;28;20212;-81
2023/06/22 07:55:29;;;;;;;11.95;4.55;;;33.00;59.90;;;;;;5057732;28;20204;-80
2023/06/22 07:57:58;;;;;;;10.95;4.50;;;33.00;62.10;;;;;;5043199;28;20220;-81
2023/06/22 08:00:26;;;;;;;11.07;4.20;;;33.70;59.70;;;;;;5043009;28;20213;-83
2023/06/22 08:02:54;;;;;;;13.45;4.50;;;33.80;58.40;;;;;;5042610;28;20205;-82
2023/06/22 08:05:24;;;;;;;12.18;4.63;;;33.70;57.60;;;;;;5038947;28;20653;-80
2023/06/22 08:07:53;;;;;;;11.63;4.88;;;34.60;57.80;;;;;;5055193;28;20207;-83
2023/06/22 08:10:23;;;;;;;10.23;4.57;;;35.00;53.50;;;;;;5054535;28;20262;-80
2023/06/22 08:12:52;;;;;;;8.00;4.30;;;34.90;53.60;;;;;;5054110;28;20223;-83
2023/06/22 08:15:21;;;;;;;10.52;4.82;;;35.10;51.90;;;;;;5053324;28;20226;-82
2023/06/22 08:17:52;;;;;;;17.02;4.65;;;35.30;50.20;;;;;;5054456;28;20215;-82
2023/06/22 08:20:20;;;;;;;8.38;4.57;;;34.80;50.70;;;;;;5054077;28;20216;-83
2023/06/22 08:22:49;;;;;;;8.95;4.18;;;33.80;51.30;;;;;;5051289;28;20258;-83
2023/06/22 08:25:17;;;;;;;9.43;4.55;;;33.60;52.20;;;;;;5034324;28;20593;-81
2023/06/22 08:27:48;;;;;;;13.93;4.57;;;33.50;52.50;;;;;;5034015;28;20255;-79
2023/06/22 08:30:18;;;;;;;17.77;5.78;;;33.80;51.80;;;;;;5033610;28;20208;-82
2023/06/22 08:32:46;;;;;;;16.40;5.70;;;33.50;52.00;;;;;;5033856;28;20224;-82
2023/06/22 08:35:14;;;;;;;11.07;4.78;;;33.70;53.00;;;;;;5034521;28;20315;-84
2023/06/22 08:37:43;;;;;;;11.52;4.78;;;33.60;52.70;;;;;;5034258;28;20212;-82
2023/06/22 08:40:12;;;;;;;10.65;4.88;;;33.30;52.70;;;;;;5034799;28;20205;-81
2023/06/22 08:42:42;;;;;;;11.75;5.07;;;32.70;53.60;;;;;;5046002;28;20712;-81
2023/06/22 08:45:13;;;;;;;11.43;5.00;;;31.90;57.00;;;;;;5054078;28;20315;-78
2023/06/22 08:47:42;;;;;;;11.07;4.93;;;31.90;56.80;;;;;;5053773;28;20605;-79
2023/06/22 08:50:11;;;;;;;13.15;4.78;;;31.60;56.90;;;;;;5038400;28;20304;-79
2023/06/22 08:52:41;;;;;;;12.32;4.90;;;32.30;59.40;;;;;;5033869;28;20235;-82
2023/06/22 08:55:10;;;;;;;12.40;4.72;;;32.90;56.50;;;;;;5034003;28;20217;-82
2023/06/22 08:57:39;;;;;;;13.15;5.60;;;33.50;54.70;;;;;;5034618;28;20213;-83
2023/06/22 09:00:16;;;;;;;9.82;4.50;;;33.90;56.70;;;;;;5033617;28;20632;-81
2023/06/22 09:02:46;;;;;;;10.77;4.55;;;34.90;52.00;;;;;;5033160;28;20205;-81
2023/06/22 09:05:15;;;;;;;9.60;4.68;;;35.00;52.40;;;;;;5032958;28;20667;-80
2023/06/22 09:07:44;;;;;;;12.02;5.00;;;34.90;52.00;;;;;;5033905;28;20610;-81
2023/06/22 09:10:12;;;;;;;13.82;5.35;;;34.70;50.80;;;;;;5033145;28;20514;-80
2023/06/22 09:12:41;;;;;;;15.10;5.13;;;33.80;52.80;;;;;;5032412;28;20690;-81
2023/06/22 09:15:10;;;;;;;10.60;4.72;;;32.90;54.80;;;;;;5033360;28;20299;-78
2023/06/22 09:17:47;;;;;;;13.63;5.00;;;32.60;56.70;;;;;;5033643;28;20359;-80
2023/06/22 09:20:15;;;;;;;13.45;4.57;;;32.60;59.20;;;;;;5033644;28;20220;-80
2023/06/22 09:22:44;;;;;;;11.15;5.40;;;33.00;57.50;;;;;;5033657;28;20593;-79
2023/06/22 09:25:12;;;;;;;13.38;4.82;;;33.20;56.50;;;;;;5033185;28;20205;-79
2023/06/22 09:27:40;;;;;;;10.65;4.82;;;33.70;54.90;;;;;;5033271;28;20591;-81
2023/06/22 09:30:10;;;;;;;15.45;4.97;;;34.00;54.30;;;;;;5033262;28;20215;-80
2023/06/22 09:32:38;;;;;;;12.93;4.82;;;33.90;54.70;;;;;;5032408;28;20211;-81
2023/06/22 09:35:09;;;;;;;9.90;4.63;;;34.40;54.70;;;;;;5032687;28;20707;-80
2023/06/22 09:37:39;;;;;;;9.82;4.88;;;34.90;53.10;;;;;;5032937;28;20219;-81
2023/06/22 09:40:11;;;;;;;13.40;5.10;;;34.70;52.90;;;;;;5036258;28;20216;-83
2023/06/22 09:42:39;;;;;;;11.13;4.93;;;35.00;51.30;;;;;;5045510;28;20610;-80
2023/06/22 09:45:08;;;;;;;13.23;5.10;;;34.90;50.90;;;;;;5033637;28;20251;-82
2023/06/22 09:47:37;;;;;;;11.77;4.97;;;34.50;51.30;;;;;;5033050;28;20670;-81
2023/06/22 09:50:06;;;;;;;15.10;4.90;;;35.10;53.20;;;;;;5034141;28;20212;-80
2023/06/22 09:52:35;;;;;;;14.15;4.88;;;34.80;51.70;;;;;;5032404;28;20228;-79
2023/06/22 09:55:07;;;;;;;13.65;4.93;;;35.20;53.70;;;;;;5032739;28;20224;-81
2023/06/22 09:57:35;;;;;;;10.63;4.93;;;35.40;50.50;;;;;;5033026;28;20212;-80
2023/06/22 10:00:08;;;;;;;10.65;5.20;;;35.50;49.50;;;;;;5032946;28;20201;-80
2023/06/22 10:02:36;;;;;;;13.25;4.93;;;36.00;48.80;;;;;;5032279;28;20201;-80
2023/06/22 10:05:05;;;;;;;14.38;5.03;;;36.60;49.20;;;;;;5032087;28;20201;-79
2023/06/22 10:07:39;;;;;;;10.13;4.90;;;35.90;48.10;;;;;;5032330;28;20319;-80
2023/06/22 10:10:08;;;;;;;9.70;5.13;;;35.80;51.20;;;;;;5034070;28;20278;-80
2023/06/22 10:12:37;;;;;;;10.18;4.97;;;36.00;48.20;;;;;;5031891;28;20220;-83
2023/06/22 10:15:06;;;;;;;11.13;5.30;;;35.60;49.30;;;;;;5033251;28;20205;-84
2023/06/22 10:17:35;;;;;;;14.38;4.97;;;34.20;50.00;;;;;;5032423;28;20730;-80
2023/06/22 10:20:10;;;;;;;11.88;5.20;;;34.60;49.90;;;;;;5032538;28;20212;-82
2023/06/22 10:22:41;;;;;;;13.98;4.97;;;33.80;51.70;;;;;;5031184;28;20745;-80
2023/06/22 10:25:12;;;;;;;12.13;4.85;;;34.50;52.00;;;;;;5043430;28;20208;-82
2023/06/22 10:27:40;;;;;;;16.73;5.20;;;34.70;51.40;;;;;;5052093;28;20235;-80
2023/06/22 10:30:12;;;;;;;11.73;5.10;;;34.80;52.90;;;;;;5040455;28;20263;-81
2023/06/22 10:32:42;;;;;;;10.98;4.82;;;35.10;50.70;;;;;;5031932;28;20239;-83
2023/06/22 10:35:13;;;;;;;12.95;5.03;;;35.10;50.10;;;;;;5032016;28;20243;-82
2023/06/22 10:37:44;;;;;;;10.82;4.65;;;35.60;49.20;;;;;;5031976;28;20201;-80
2023/06/22 10:40:14;;;;;;;12.48;5.30;;;36.10;50.50;;;;;;5046597;28;20688;-81
2023/06/22 10:42:43;;;;;;;13.27;5.20;;;36.80;48.00;;;;;;5051241;28;20223;-80
2023/06/22 10:45:12;;;;;;;11.35;4.60;;;36.40;48.10;;;;;;5052399;28;20203;-80
2023/06/22 10:47:42;;;;;;;11.70;5.10;;;36.10;48.60;;;;;;5051639;28;20306;-82
2023/06/22 10:50:11;;;;;;;9.05;4.85;;;35.90;48.80;;;;;;5051080;28;20482;-81
2023/06/22 10:52:39;;;;;;;10.25;4.90;;;36.40;50.10;;;;;;5052036;28;20222;-81
2023/06/22 10:55:09;;;;;;;13.98;5.03;;;36.50;46.80;;;;;;5051570;28;20212;-82
2023/06/22 10:57:39;;;;;;;15.73;5.10;;;36.40;47.80;;;;;;5044029;28;20211;-80
2023/06/22 11:00:10;;;;;;;12.18;4.72;;;37.00;47.10;;;;;;5031870;28;20732;-81
2023/06/22 11:02:39;;;;;;;13.55;5.00;;;36.70;47.10;;;;;;5031813;28;20366;-81
2023/06/22 11:05:08;;;;;;;14.48;5.60;;;36.90;46.70;;;;;;5034727;28;20727;-81
2023/06/22 11:07:36;;;;;;;11.70;4.95;;;36.90;46.00;;;;;;5051297;28;20259;-81
2023/06/22 11:10:11;;;;;;;19.92;5.22;;;37.20;47.30;;;;;;5051748;28;20247;-80
2023/06/22 11:12:39;;;;;;;10.88;5.20;;;37.00;45.00;;;;;;5049925;28;20243;-81
2023/06/22 11:15:09;;;;;;;14.65;5.10;;;36.40;45.50;;;;;;5051841;28;20670;-81
2023/06/22 11:17:37;;;;;;;10.55;5.20;;;36.40;45.60;;;;;;5051923;28;20235;-82
2023/06/22 11:20:10;;;;;;;12.18;5.32;;;36.20;47.80;;;;;;5052134;28;20227;-81
2023/06/22 11:22:39;;;;;;;11.73;5.20;;;36.20;49.20;;;;;;5034745;28;20278;-80
2023/06/22 11:25:08;;;;;;;12.40;5.40;;;36.30;48.00;;;;;;5032194;28;20213;-80
2023/06/22 11:27:38;;;;;;;10.85;5.20;;;35.70;46.20;;;;;;5031873;28;20232;-79
2023/06/22 11:30:07;;;;;;;11.57;4.75;;;35.80;46.50;;;;;;5031005;28;20631;-78
2023/06/22 11:32:35;;;;;;;13.18;5.03;;;35.20;48.30;;;;;;5031810;28;20267;-82
2023/06/22 11:35:04;;;;;;;13.90;5.45;;;34.50;47.80;;;;;;5035508;28;20208;-78
2023/06/22 11:37:32;;;;;;;18.75;5.28;;;34.00;47.40;;;;;;5039792;28;20236;-82
2023/06/22 11:40:02;;;;;;;12.32;5.25;;;33.70;51.80;;;;;;5043565;28;20658;-79
2023/06/22 11:42:35;;;;;;;12.93;5.25;;;33.50;52.60;;;;;;5035127;28;20205;-78
2023/06/22 11:45:06;;;;;;;15.45;5.40;;;33.20;51.60;;;;;;5039224;28;20221;-79
2023/06/22 11:47:34;;;;;;;13.68;5.03;;;32.80;51.40;;;;;;5036602;28;20236;-78
2023/06/22 11:50:03;;;;;;;13.50;5.10;;;33.00;52.00;;;;;;5036823;28;20213;-80
2023/06/22 11:52:31;;;;;;;15.90;5.40;;;33.30;52.20;;;;;;5036382;28;20213;-79
2023/06/22 11:54:59;;;;;;;14.93;5.10;;;33.70;53.60;;;;;;5038116;28;20663;-80
2023/06/22 11:57:28;;;;;;;16.23;5.70;;;33.40;51.10;;;;;;5035756;28;20236;-80
2023/06/22 11:59:56;;;;;;;16.35;5.82;;;33.40;53.50;;;;;;5036874;28;20684;-79
2023/06/22 12:02:26;;;;;;;13.85;5.32;;;33.60;51.30;;;;;;5034954;28;20259;-78
2023/06/22 12:04:56;;;;;;;18.05;5.35;;;33.90;51.10;;;;;;5035737;28;20243;-77
2023/06/22 12:07:24;;;;;;;13.82;5.25;;;33.80;50.40;;;;;;5037059;28;20229;-77
2023/06/22 12:09:52;;;;;;;14.00;5.60;;;33.60;49.80;;;;;;5035900;28;20217;-78
2023/06/22 12:12:20;;;;;;;11.55;5.22;;;34.10;49.90;;;;;;5034951;28;20721;-78
2023/06/22 12:14:48;;;;;;;16.52;5.50;;;34.00;48.70;;;;;;5035515;28;20205;-80
2023/06/22 12:17:16;;;;;;;12.45;4.72;;;34.00;49.60;;;;;;5036958;28;20201;-79
2023/06/22 12:19:46;;;;;;;14.82;5.25;;;34.00;48.50;;;;;;5034867;28;20213;-79
2023/06/22 12:22:14;;;;;;;15.63;5.35;;;34.60;51.20;;;;;;5036250;28;20638;-79
2023/06/22 12:24:42;;;;;;;19.23;5.30;;;34.80;47.90;;;;;;5035996;28;20212;-79
2023/06/22 12:27:11;;;;;;;11.60;4.85;;;34.70;48.90;;;;;;5034778;28;20279;-77
2023/06/22 12:29:39;;;;;;;12.57;5.05;;;34.90;50.10;;;;;;5037934;28;20270;-80
2023/06/22 12:32:08;;;;;;;14.20;4.78;;;34.40;47.30;;;;;;5062503;28;20238;-79
2023/06/22 12:34:36;;;;;;;16.88;5.43;;;34.50;48.60;;;;;;5043912;28;20626;-77
2023/06/22 12:37:06;;;;;;;15.20;5.20;;;34.50;46.60;;;;;;5055211;28;20521;-79
2023/06/22 12:39:34;;;;;;;16.08;5.22;;;34.80;49.20;;;;;;5039686;28;20201;-77
2023/06/22 12:42:02;;;;;;;18.25;5.20;;;34.70;48.00;;;;;;5031829;28;20297;-77
2023/06/22 12:44:30;;;;;;;16.40;5.20;;;34.90;47.90;;;;;;5033586;28;20224;-78
2023/06/22 12:46:58;;;;;;;13.40;5.40;;;34.90;47.80;;;;;;5039820;28;20657;-77
2023/06/22 12:49:26;;;;;;;18.35;5.55;;;34.90;46.90;;;;;;5048683;28;20270;-78
2023/06/22 12:51:54;;;;;;;12.65;5.18;;;34.80;47.10;;;;;;5045915;28;20692;-84